Latest Coastal Weather Observations for Cape Willoughby

IDS60701

Issued at 3:31 am CDT Friday 20 January 2017 (issued every 10 minutes, with the page automatically refreshed every 10 minutes)

About coastal observations | Map of coastal stations | Coastal observations for SA | Marine services | Other Formats
Station Details ID: 022803 Name: CAPE WILLOUGHBY Lat: -35.84 Lon: 138.13 Height: 55.0 m
Data from the previous 72 hours. | See also: Recent months at Cape Willoughby
Date/Time
CDT
Temp
°C
Wind Pressure Rain since
9am
mm
Weather Cloud Vis
km
Sea
Height
m
Swell
Dir  Spd
kts
Gust
kts
hPa Trend Height
m
Period
s
Dir
19/08:30pm 18.7 SW 17 33 999.4 - 2.8 - - - - - - -
19/08:26pm 19.9 S 8 29 998.9 - 1.2 - - - - - - -
19/08:25pm 19.9 SSE 6 22 998.5 - 1.2 - - - - - - -
19/08:00pm 19.7 SE 6 11 996.1 - 1.2 - - - - - - -
19/07:30pm 20.4 E 7 10 997.0 - 0.0 - - - - - - -
19/07:00pm 20.8 SE 8 11 997.8 - 0.0 - - - - - - -
19/06:30pm 21.3 SE 8 11 998.4 - 0.0 - - - - - - -
19/06:00pm 21.3 SE 9 11 999.1 - 0.0 - - - - - - -
19/05:30pm 21.6 ESE 8 10 999.4 - 0.0 - - - - - - -
19/05:00pm 21.6 ESE 8 12 1000.3 - 0.0 - - - - - - -
19/04:30pm 21.4 ESE 11 13 1001.2 - 0.0 - - - - - - -
19/04:00pm 21.4 E 13 17 1002.1 - 0.0 - - - - - - -
19/03:30pm 21.7 ESE 11 14 1003.6 - 0.0 - - - - - - -
19/03:00pm 21.0 ESE 12 15 1004.3 - 0.0 - - - - - - -
19/02:30pm 21.7 ESE 12 16 1005.0 - 0.0 - - - - - - -
19/02:00pm 21.9 E 12 15 1006.2 - 0.0 - - - - - - -
19/01:30pm 21.1 E 12 16 1006.6 - 0.0 - - - - - - -
19/01:00pm 19.8 ENE 17 20 1006.9 - 0.0 - - - - - - -
19/12:30pm 18.8 ENE 15 18 1007.6 - 0.0 - - - - - - -
19/12:00pm 17.9 E 18 23 1007.6 - 0.0 - - - - - - -
19/11:30am 17.7 E 18 23 1008.6 - 0.0 - - - - - - -
19/11:00am 17.6 E 16 20 1009.0 - 0.0 - - - - - - -
19/10:30am 17.8 E 14 17 1009.8 - 0.0 - - - - - - -
19/10:00am 17.6 E 13 17 1010.4 - 0.0 - - - - - - -
19/09:30am 17.6 ENE 15 19 1010.4 - 0.0 - - - - - - -
19/09:00am 17.6 ENE 15 20 1010.5 - 0.0 - - - - - - -
19/08:30am 17.6 E 16 20 1010.7 - 0.0 - - - - - - -
19/08:00am 17.9 E 16 19 1010.8 - 0.0 - - - - - - -
19/07:30am 17.5 E 16 19 1011.2 - 0.0 - - - - - - -
19/07:00am 17.3 E 16 20 1011.2 - 0.0 - - - - - - -
19/06:30am 17.1 E 15 19 1011.5 - 0.0 - - - - - - -
19/06:00am 17.0 E 16 21 1011.3 - 0.0 - - - - - - -
19/05:30am 16.9 E 17 20 1011.1 - 0.0 - - - - - - -
19/05:00am 16.8 E 18 22 1011.1 - 0.0 - - - - - - -
19/04:30am 16.8 E 18 22 1011.4 - 0.0 - - - - - - -
19/04:00am 17.0 E 19 24 1011.7 - 0.0 - - - - - - -
19/03:30am 17.1 E 19 23 1011.9 - 0.0 - - - - - - -
19/03:00am 17.0 ESE 18 24 1012.0 - 0.0 - - - - - - -
19/02:30am 16.9 ESE 19 24 1012.3 - 0.0 - - - - - - -
19/02:00am 16.9 ESE 20 25 1012.8 - 0.0 - - - - - - -
19/01:30am 17.1 ESE 21 25 1013.2 - 0.0 - - - - - - -
19/01:00am 17.0 SE 22 26 1013.5 - 0.0 - - - - - - -
19/12:30am 17.0 SE 22 27 1013.9 - 0.0 - - - - - - -
19/12:00am 16.9 SE 22 27 1014.3 - 0.0 - - - - - - -
 
Date/Time
CDT
Temp
°C
Wind Pressure Rain since
9am
mm
Weather Cloud Vis
km
Sea
Height
m
Swell
Dir  Spd
kts
Gust
kts
hPa Trend Height
m
Period
s
Dir
18/11:30pm 16.8 SE 22 27 1014.5 - 0.0 - - - - - - -
18/11:00pm 16.9 SE 21 26 1014.7 - 0.0 - - - - - - -
18/10:30pm 16.6 SE 22 25 1014.9 - 0.0 - - - - - - -
18/10:00pm 16.6 SE 21 25 1014.8 - 0.0 - - - - - - -
18/09:30pm 16.5 SE 22 28 1014.7 - 0.0 - - - - - - -
18/09:00pm 16.7 SE 23 27 1014.7 - 0.0 - - - - - - -
18/08:30pm 16.8 SE 21 26 1014.9 - 0.0 - - - - - - -
18/08:00pm 16.9 SE 21 25 1014.9 - 0.0 - - - - - - -
18/07:30pm 16.9 SSE 20 25 1015.0 - 0.0 - - - - - - -
18/07:00pm 16.9 SE 21 27 1014.8 - 0.0 - - - - - - -
18/06:30pm 17.2 SE 20 25 1014.4 - 0.0 - - - - - - -
18/06:00pm 17.4 SE 19 24 1014.8 - 0.0 - - - - - - -
18/05:30pm 17.4 SE 19 24 1015.0 - 0.0 - - - - - - -
18/05:00pm 17.4 SE 19 23 1015.4 - 0.0 - - - - - - -
18/04:30pm 17.3 SE 19 23 1015.4 - 0.0 - - - - - - -
18/04:00pm 17.7 SE 18 22 1015.9 - 0.0 - - - - - - -
18/03:30pm 17.4 SE 18 23 1016.0 - 0.0 - - - - - - -
18/03:00pm 17.5 SE 19 23 1016.5 - 0.0 - - - - - - -
18/02:30pm 18.3 SE 18 23 1016.1 - 0.0 - - - - - - -
18/02:00pm 18.5 SE 16 20 1016.3 - 0.0 - - - - - - -
18/01:30pm 18.6 SE 15 19 1016.6 - 0.0 - - - - - - -
18/01:00pm 18.5 SE 16 19 1017.0 - 0.0 - - - - - - -
18/12:30pm 18.2 SE 19 23 1017.0 - 0.0 - - - - - - -
18/12:00pm 18.3 SE 16 21 1017.5 - 0.0 - - - - - - -
18/11:30am 17.8 SE 17 21 1017.0 - 0.0 - - - - - - -
18/11:00am 17.5 SE 19 22 1017.3 - 0.0 - - - - - - -
18/10:30am 17.7 SE 16 20 1017.8 - 0.0 - - - - - - -
18/10:00am 17.2 SE 20 24 1016.8 - 0.0 - - - - - - -
18/09:30am 17.4 SE 20 24 1016.5 - 0.0 - - - - - - -
18/09:00am 17.5 SE 19 23 1016.6 - - - - - - - - -
18/08:30am 17.3 SSE 19 22 1016.3 - - - - - - - - -
18/08:00am 17.0 SSE 19 24 1016.2 - - - - - - - - -
18/07:30am 16.8 SE 19 23 1015.5 - - - - - - - - -
18/07:00am 16.6 SSE 17 24 1015.5 - - - - - - - - -
18/06:30am 16.4 SSE 19 23 1014.8 - - - - - - - - -
18/06:00am 16.1 SSE 18 23 1014.5 - - - - - - - - -
18/05:30am 16.1 SSE 19 25 1013.9 - - - - - - - - -
18/05:00am 16.1 SSE 18 23 1013.1 - - - - - - - - -
18/04:30am 15.8 SSE 17 22 1012.8 - - - - - - - - -
18/04:00am 16.3 SSE 16 22 1012.1 - - - - - - - - -
18/03:00am 16.7 SSE 15 19 1012.1 - 0.0 - - - - - - -
18/02:30am 16.9 SSE 16 21 1012.0 - - - - - - - - -
18/02:00am 17.1 SSE 17 22 1012.0 - - - - - - - - -
18/01:30am 17.5 SSE 15 19 1012.3 - - - - - - - - -
18/01:00am 17.7 SSE 17 21 1012.3 - - - - - - - - -
18/12:30am 17.9 SSE 16 20 1012.4 - - - - - - - - -
18/12:00am 18.0 SSE 17 20 1012.6 - - - - - - - - -
 
Date/Time
CDT
Temp
°C
Wind Pressure Rain since
9am
mm
Weather Cloud Vis
km
Sea
Height
m
Swell
Dir  Spd
kts
Gust
kts
hPa Trend Height
m
Period
s
Dir
17/11:30pm 18.1 SSE 16 21 1013.0 - - - - - - - - -
17/11:00pm 18.2 SSE 16 20 1013.0 - - - - - - - - -
17/10:30pm 18.2 SSE 16 19 1012.8 - - - - - - - - -
17/10:00pm 18.2 SE 15 19 1012.2 - - - - - - - - -
17/09:30pm 18.2 SSE 17 21 1011.7 - - - - - - - - -
17/09:00pm 18.2 SSE 18 23 1011.5 - 0.0 - - - - - - -
17/08:30pm 18.3 S 27 33 1011.6 - - - - - - - - -
17/08:00pm 18.6 S 29 36 1011.5 - - - - - - - - -
17/07:30pm 19.1 S 26 32 1010.7 - - - - - - - - -
17/07:00pm 19.4 S 25 31 1010.2 - - - - - - - - -
17/06:30pm 20.4 S 22 29 1009.3 - - - - - - - - -
17/06:00pm 20.9 S 17 21 1008.2 - - - - - - - - -
17/05:30pm 21.5 S 14 19 1007.4 - - - - - - - - -
17/05:00pm 23.8 SSW 14 19 1006.8 - - - - - - - - -
17/04:30pm 24.4 SSW 8 12 1006.4 - - - - - - - - -
17/04:00pm 24.7 S 7 10 1006.4 - - - - - - - - -
17/03:30pm 25.5 S 7 10 1006.1 - - - - - - - - -
17/03:00pm 26.8 S 7 9 1006.2 - - - - - - - - -
17/02:30pm 25.2 SSE 8 15 1006.4 - 0.0 - - - - - - -
17/02:00pm 26.3 S 5 12 1006.4 - 0.0 - - - - - - -
17/01:30pm 30.2 NW 10 12 1006.5 - 0.0 - - - - - - -
17/01:00pm 28.6 NNW 13 15 1006.5 - 0.0 - - - - - - -
17/12:30pm 29.8 NNW 13 15 1006.7 - 0.0 - - - - - - -
17/12:00pm 29.4 NNW 15 17 1006.9 - 0.0 - - - - - - -
17/11:30am 30.0 NNW 18 23 1007.1 - 0.0 - - - - - - -
17/11:00am 30.3 NNW 17 21 1007.1 - 0.0 - - - - - - -
17/10:30am 30.9 NNW 16 19 1007.1 - 0.0 - - - - - - -
17/10:00am 27.7 N 9 17 1007.1 - 0.0 - - - - - - -
17/09:30am 24.1 N 6 7 1007.2 - 0.0 - - - - - - -
17/09:00am 23.3 N 7 7 1007.2 - - - - - - - - -
17/08:30am 22.1 N 7 7 1007.2 - - - - - - - - -
17/08:00am 22.1 N 5 5 1007.3 - - - - - - - - -
17/07:30am 22.9 NNE 1 4 1007.5 - - - - - - - - -
17/07:00am 23.1 CALM 0 0 1007.5 - - - - - - - - -
17/06:30am 23.0 S 4 4 1007.3 - - - - - - - - -
17/06:00am 24.6 SSE 4 6 1007.0 - - - - - - - - -
17/05:30am 25.1 ESE 3 4 1007.0 - - - - - - - - -
17/05:00am 25.1 SSE 3 3 1006.9 - - - - - - - - -
17/04:30am 24.9 CALM 0 0 1006.9 - - - - - - - - -
17/04:00am 24.0 CALM 0 0 1007.0 - - - - - - - - -

Other Formats:

Comma delimited format used in spreadsheet applications
http://www.bom.gov.au/fwo/IDS60701/IDS60701.94822.axf

JavaScript Object Notation format (JSON) in row-major order
http://www.bom.gov.au/fwo/IDS60701/IDS60701.94822.json